KWYS/WYS METAR and TAF weather

Enter ICAO airport designator
Station Type Date Time Source
KWYS METAR 2018/12/11 23:15 UTC NOAA

KWYS 112315Z AUTO 23010KT 1 3/4SM -SN OVC011 M07/M09 A3007 RMK AO2


Station Type Date Time Source
KWYS Decoded METAR 2018/12/11 23:15 UTC NOAA

West Yellowstone, MT, United States (KWYS) 44-41N 111-07W
Dec 11, 2018 - 06:15 PM EST / 2018.12.11 2315 UTC
Wind: from the SW (230 degrees) at 12 MPH (10 KT):0
Visibility: 1 3/4 mile(s):0
Sky conditions: overcast
Weather: light snow
Temperature: 19 F (-7 C)
Windchill: 6 F (-14 C):1
Dew Point: 15 F (-9 C)
Relative Humidity: 85%
Pressure (altimeter): 30.07 in. Hg (1018 hPa)
ob: KWYS 112315Z AUTO 23010KT 1 3/4SM -SN OVC011 M07/M09 A3007 RMK AO2
cycle: 23

Station Type Date Time Source
KWYS TAF UTC NOAA

Error!


Example: see airport list